sensor_id;sensor_type;location;lat;lon;timestamp;P1;durP1;ratioP1;P2;durP2;ratioP2
39082;SDS011;24834;44.444;26.098;2023-05-29T04:16:55;29.33;;;25.00;;
39082;SDS011;24834;44.444;26.098;2023-05-29T04:22:59;23.33;;;21.33;;
39082;SDS011;24834;44.444;26.098;2023-05-29T04:29:02;24.67;;;22.67;;
39082;SDS011;24834;44.444;26.098;2023-05-29T04:35:07;23.00;;;21.33;;
39082;SDS011;24834;44.444;26.098;2023-05-29T04:41:19;26.33;;;25.00;;
39082;SDS011;24834;44.444;26.098;2023-05-29T04:47:27;23.00;;;22.33;;
39082;SDS011;24834;44.444;26.098;2023-05-29T04:53:29;22.33;;;21.67;;
39082;SDS011;24834;44.444;26.098;2023-05-29T04:59:33;25.67;;;21.33;;
39082;SDS011;24834;44.444;26.098;2023-05-29T05:05:35;28.67;;;25.67;;
39082;SDS011;24834;44.444;26.098;2023-05-29T05:11:38;49.33;;;40.33;;
39082;SDS011;24834;44.444;26.098;2023-05-29T05:17:42;42.33;;;38.33;;
39082;SDS011;24834;44.444;26.098;2023-05-29T05:23:46;29.00;;;27.33;;
39082;SDS011;24834;44.444;26.098;2023-05-29T05:30:01;16.25;;;16.25;;
39082;SDS011;24834;44.444;26.098;2023-05-29T05:36:07;18.50;;;17.00;;
39082;SDS011;24834;44.444;26.098;2023-05-29T05:42:13;14.75;;;13.00;;
39082;SDS011;24834;44.444;26.098;2023-05-29T05:48:30;16.33;;;14.00;;
39082;SDS011;24834;44.444;26.098;2023-05-29T05:54:36;11.00;;;11.00;;
39082;SDS011;24834;44.444;26.098;2023-05-29T06:00:39;13.50;;;13.25;;
39082;SDS011;24834;44.444;26.098;2023-05-29T06:06:43;15.00;;;13.25;;
39082;SDS011;24834;44.444;26.098;2023-05-29T06:12:48;12.00;;;10.50;;
39082;SDS011;24834;44.444;26.098;2023-05-29T06:18:57;17.00;;;13.75;;
39082;SDS011;24834;44.444;26.098;2023-05-29T06:25:03;10.75;;;10.75;;
39082;SDS011;24834;44.444;26.098;2023-05-29T06:31:11;11.00;;;11.00;;
39082;SDS011;24834;44.444;26.098;2023-05-29T06:37:13;11.00;;;10.25;;
39082;SDS011;24834;44.444;26.098;2023-05-29T06:43:16;14.25;;;11.00;;
39082;SDS011;24834;44.444;26.098;2023-05-29T06:49:23;15.00;;;13.75;;
39082;SDS011;24834;44.444;26.098;2023-05-29T06:55:27;7.75;;;7.00;;
39082;SDS011;24834;44.444;26.098;2023-05-29T07:01:32;12.50;;;11.50;;
39082;SDS011;24834;44.444;26.098;2023-05-29T07:07:37;12.25;;;11.50;;
39082;SDS011;24834;44.444;26.098;2023-05-29T07:13:41;13.75;;;12.25;;
39082;SDS011;24834;44.444;26.098;2023-05-29T07:19:43;15.00;;;14.00;;
39082;SDS011;24834;44.444;26.098;2023-05-29T07:25:47;14.25;;;10.50;;
39082;SDS011;24834;44.444;26.098;2023-05-29T07:31:51;12.75;;;11.25;;
39082;SDS011;24834;44.444;26.098;2023-05-29T07:37:56;11.75;;;10.25;;
39082;SDS011;24834;44.444;26.098;2023-05-29T07:44:02;14.00;;;11.75;;
39082;SDS011;24834;44.444;26.098;2023-05-29T07:50:05;16.75;;;14.00;;
39082;SDS011;24834;44.444;26.098;2023-05-29T07:56:09;9.75;;;8.75;;
39082;SDS011;24834;44.444;26.098;2023-05-29T08:02:13;15.50;;;14.00;;
39082;SDS011;24834;44.444;26.098;2023-05-29T08:08:30;12.00;;;12.00;;
39082;SDS011;24834;44.444;26.098;2023-05-29T08:14:37;13.75;;;13.00;;
39082;SDS011;24834;44.444;26.098;2023-05-29T08:20:41;9.00;;;9.00;;
39082;SDS011;24834;44.444;26.098;2023-05-29T08:26:45;14.00;;;14.00;;
39082;SDS011;24834;44.444;26.098;2023-05-29T08:32:53;13.50;;;12.50;;
39082;SDS011;24834;44.444;26.098;2023-05-29T08:38:58;12.00;;;12.00;;
39082;SDS011;24834;44.444;26.098;2023-05-29T08:45:03;19.00;;;16.00;;
39082;SDS011;24834;44.444;26.098;2023-05-29T08:51:09;14.50;;;13.25;;
39082;SDS011;24834;44.444;26.098;2023-05-29T08:57:13;18.50;;;16.25;;
39082;SDS011;24834;44.444;26.098;2023-05-29T09:03:20;14.75;;;14.75;;
39082;SDS011;24834;44.444;26.098;2023-05-29T09:09:24;20.00;;;17.50;;
39082;SDS011;24834;44.444;26.098;2023-05-29T09:15:29;15.00;;;13.50;;
39082;SDS011;24834;44.444;26.098;2023-05-29T09:21:33;15.50;;;15.00;;
39082;SDS011;24834;44.444;26.098;2023-05-29T09:27:39;15.00;;;14.25;;
39082;SDS011;24834;44.444;26.098;2023-05-29T09:33:48;14.25;;;14.25;;
39082;SDS011;24834;44.444;26.098;2023-05-29T09:39:51;14.25;;;14.25;;
39082;SDS011;24834;44.444;26.098;2023-05-29T09:45:55;12.75;;;12.75;;
39082;SDS011;24834;44.444;26.098;2023-05-29T09:51:58;15.50;;;15.00;;
39082;SDS011;24834;44.444;26.098;2023-05-29T09:58:02;16.50;;;16.50;;
39082;SDS011;24834;44.444;26.098;2023-05-29T10:04:10;14.75;;;14.50;;
39082;SDS011;24834;44.444;26.098;2023-05-29T10:10:15;21.75;;;18.50;;
39082;SDS011;24834;44.444;26.098;2023-05-29T10:16:21;15.25;;;14.75;;
39082;SDS011;24834;44.444;26.098;2023-05-29T10:22:27;14.25;;;13.25;;
39082;SDS011;24834;44.444;26.098;2023-05-29T10:28:31;10.25;;;9.50;;
39082;SDS011;24834;44.444;26.098;2023-05-29T10:34:42;10.75;;;10.50;;
39082;SDS011;24834;44.444;26.098;2023-05-29T10:40:53;16.50;;;14.50;;
39082;SDS011;24834;44.444;26.098;2023-05-29T10:53:00;13.00;;;13.00;;
39082;SDS011;24834;44.444;26.098;2023-05-29T10:59:06;15.50;;;13.50;;
39082;SDS011;24834;44.444;26.098;2023-05-29T11:05:21;13.75;;;12.75;;
39082;SDS011;24834;44.444;26.098;2023-05-29T11:11:31;14.25;;;14.00;;
39082;SDS011;24834;44.444;26.098;2023-05-29T11:23:41;17.75;;;15.50;;
39082;SDS011;24834;44.444;26.098;2023-05-29T11:29:44;15.25;;;15.25;;
39082;SDS011;24834;44.444;26.098;2023-05-29T11:35:48;14.75;;;11.75;;
39082;SDS011;24834;44.444;26.098;2023-05-29T11:41:58;16.50;;;16.25;;
39082;SDS011;24834;44.444;26.098;2023-05-29T11:48:02;12.25;;;12.25;;
39082;SDS011;24834;44.444;26.098;2023-05-29T11:54:07;13.00;;;11.00;;
39082;SDS011;24834;44.444;26.098;2023-05-29T12:00:12;14.50;;;13.50;;
39082;SDS011;24834;44.444;26.098;2023-05-29T12:06:34;14.50;;;13.00;;
39082;SDS011;24834;44.444;26.098;2023-05-29T12:12:40;11.25;;;11.25;;
39082;SDS011;24834;44.444;26.098;2023-05-29T12:18:47;13.50;;;12.50;;
39082;SDS011;24834;44.444;26.098;2023-05-29T12:24:55;12.00;;;12.00;;
39082;SDS011;24834;44.444;26.098;2023-05-29T12:31:01;12.75;;;10.75;;
39082;SDS011;24834;44.444;26.098;2023-05-29T12:37:07;12.50;;;12.25;;
39082;SDS011;24834;44.444;26.098;2023-05-29T12:43:16;11.00;;;11.00;;
39082;SDS011;24834;44.444;26.098;2023-05-29T12:49:20;13.50;;;13.50;;
39082;SDS011;24834;44.444;26.098;2023-05-29T12:55:23;12.00;;;12.00;;
39082;SDS011;24834;44.444;26.098;2023-05-29T13:01:30;10.50;;;10.50;;
39082;SDS011;24834;44.444;26.098;2023-05-29T13:07:33;10.75;;;10.75;;
39082;SDS011;24834;44.444;26.098;2023-05-29T13:13:36;13.25;;;12.00;;
39082;SDS011;24834;44.444;26.098;2023-05-29T13:19:43;15.00;;;15.00;;
39082;SDS011;24834;44.444;26.098;2023-05-29T13:25:45;19.00;;;19.00;;
39082;SDS011;24834;44.444;26.098;2023-05-29T13:31:50;24.50;;;23.75;;
39082;SDS011;24834;44.444;26.098;2023-05-29T13:37:53;15.00;;;13.50;;
39082;SDS011;24834;44.444;26.098;2023-05-29T13:43:55;13.00;;;11.50;;
39082;SDS011;24834;44.444;26.098;2023-05-29T13:49:59;15.25;;;12.75;;
39082;SDS011;24834;44.444;26.098;2023-05-29T13:56:02;17.00;;;14.33;;
39082;SDS011;24834;44.444;26.098;2023-05-29T14:02:10;11.75;;;11.75;;
39082;SDS011;24834;44.444;26.098;2023-05-29T14:08:14;11.50;;;11.00;;
39082;SDS011;24834;44.444;26.098;2023-05-29T14:14:19;14.00;;;12.25;;
39082;SDS011;24834;44.444;26.098;2023-05-29T14:20:21;14.50;;;13.50;;
39082;SDS011;24834;44.444;26.098;2023-05-29T14:26:23;12.00;;;11.25;;
39082;SDS011;24834;44.444;26.098;2023-05-29T14:32:27;12.50;;;11.25;;
39082;SDS011;24834;44.444;26.098;2023-05-29T14:38:32;9.25;;;9.25;;
39082;SDS011;24834;44.444;26.098;2023-05-29T14:44:34;14.67;;;14.00;;
39082;SDS011;24834;44.444;26.098;2023-05-29T14:50:37;12.50;;;11.50;;
39082;SDS011;24834;44.444;26.098;2023-05-29T14:56:40;15.00;;;14.00;;
39082;SDS011;24834;44.444;26.098;2023-05-29T15:02:42;9.50;;;9.50;;
39082;SDS011;24834;44.444;26.098;2023-05-29T15:08:45;12.00;;;11.00;;
39082;SDS011;24834;44.444;26.098;2023-05-29T15:14:49;10.00;;;10.00;;
39082;SDS011;24834;44.444;26.098;2023-05-29T15:20:53;9.25;;;9.25;;
39082;SDS011;24834;44.444;26.098;2023-05-29T15:26:55;12.00;;;10.75;;
39082;SDS011;24834;44.444;26.098;2023-05-29T15:33:01;8.50;;;7.25;;
39082;SDS011;24834;44.444;26.098;2023-05-29T15:39:09;13.25;;;11.50;;
39082;SDS011;24834;44.444;26.098;2023-05-29T15:45:12;11.50;;;9.75;;
39082;SDS011;24834;44.444;26.098;2023-05-29T15:51:19;11.00;;;11.00;;
39082;SDS011;24834;44.444;26.098;2023-05-29T15:57:22;12.75;;;12.25;;
39082;SDS011;24834;44.444;26.098;2023-05-29T16:03:26;11.00;;;10.00;;
39082;SDS011;24834;44.444;26.098;2023-05-29T16:09:28;9.00;;;9.00;;
39082;SDS011;24834;44.444;26.098;2023-05-29T16:15:31;9.50;;;8.50;;
39082;SDS011;24834;44.444;26.098;2023-05-29T16:21:33;8.25;;;8.25;;
39082;SDS011;24834;44.444;26.098;2023-05-29T16:27:38;13.00;;;11.00;;
39082;SDS011;24834;44.444;26.098;2023-05-29T16:33:43;14.33;;;12.00;;
39082;SDS011;24834;44.444;26.098;2023-05-29T16:39:48;15.50;;;14.50;;
39082;SDS011;24834;44.444;26.098;2023-05-29T16:45:52;14.00;;;12.00;;
39082;SDS011;24834;44.444;26.098;2023-05-29T16:51:55;15.50;;;14.25;;
39082;SDS011;24834;44.444;26.098;2023-05-29T16:57:57;13.25;;;13.25;;
39082;SDS011;24834;44.444;26.098;2023-05-29T17:04:01;15.00;;;14.00;;
39082;SDS011;24834;44.444;26.098;2023-05-29T17:10:04;18.00;;;15.75;;
39082;SDS011;24834;44.444;26.098;2023-05-29T17:16:08;13.75;;;13.75;;
39082;SDS011;24834;44.444;26.098;2023-05-29T17:22:10;16.75;;;14.00;;
39082;SDS011;24834;44.444;26.098;2023-05-29T17:28:13;12.50;;;11.25;;
39082;SDS011;24834;44.444;26.098;2023-05-29T17:34:15;15.25;;;14.50;;
39082;SDS011;24834;44.444;26.098;2023-05-29T17:40:18;17.25;;;16.00;;
39082;SDS011;24834;44.444;26.098;2023-05-29T17:46:21;16.75;;;16.25;;
39082;SDS011;24834;44.444;26.098;2023-05-29T17:52:24;17.50;;;16.00;;
39082;SDS011;24834;44.444;26.098;2023-05-29T17:58:27;18.00;;;16.75;;
39082;SDS011;24834;44.444;26.098;2023-05-29T18:04:30;19.00;;;18.00;;
39082;SDS011;24834;44.444;26.098;2023-05-29T18:10:32;18.75;;;16.75;;
39082;SDS011;24834;44.444;26.098;2023-05-29T18:16:36;17.25;;;17.25;;
39082;SDS011;24834;44.444;26.098;2023-05-29T18:22:44;16.00;;;16.00;;
39082;SDS011;24834;44.444;26.098;2023-05-29T18:28:47;16.50;;;16.50;;
39082;SDS011;24834;44.444;26.098;2023-05-29T18:34:51;21.00;;;18.00;;
39082;SDS011;24834;44.444;26.098;2023-05-29T18:40:53;20.00;;;17.67;;
39082;SDS011;24834;44.444;26.098;2023-05-29T18:46:55;18.00;;;17.00;;
39082;SDS011;24834;44.444;26.098;2023-05-29T18:53:01;20.50;;;17.00;;
39082;SDS011;24834;44.444;26.098;2023-05-29T18:59:05;19.00;;;16.75;;
39082;SDS011;24834;44.444;26.098;2023-05-29T19:05:07;17.00;;;17.00;;
39082;SDS011;24834;44.444;26.098;2023-05-29T19:11:13;17.50;;;14.50;;
39082;SDS011;24834;44.444;26.098;2023-05-29T19:17:17;18.25;;;17.25;;
39082;SDS011;24834;44.444;26.098;2023-05-29T19:23:20;20.00;;;19.25;;
39082;SDS011;24834;44.444;26.098;2023-05-29T19:29:23;21.50;;;21.50;;
39082;SDS011;24834;44.444;26.098;2023-05-29T19:35:26;24.00;;;20.67;;
39082;SDS011;24834;44.444;26.098;2023-05-29T19:41:28;16.00;;;16.00;;
39082;SDS011;24834;44.444;26.098;2023-05-29T19:47:30;23.50;;;23.50;;
39082;SDS011;24834;44.444;26.098;2023-05-29T19:53:33;22.33;;;20.00;;
39082;SDS011;24834;44.444;26.098;2023-05-29T19:59:38;21.50;;;21.50;;
39082;SDS011;24834;44.444;26.098;2023-05-29T20:05:44;24.00;;;23.67;;
39082;SDS011;24834;44.444;26.098;2023-05-29T20:11:47;26.00;;;24.00;;
39082;SDS011;24834;44.444;26.098;2023-05-29T20:17:49;23.25;;;23.25;;
39082;SDS011;24834;44.444;26.098;2023-05-29T20:23:51;24.75;;;23.25;;
39082;SDS011;24834;44.444;26.098;2023-05-29T20:29:53;22.75;;;22.75;;
39082;SDS011;24834;44.444;26.098;2023-05-29T20:35:57;24.00;;;23.00;;
39082;SDS011;24834;44.444;26.098;2023-05-29T20:42:02;25.75;;;23.75;;
39082;SDS011;24834;44.444;26.098;2023-05-29T20:48:04;26.75;;;22.50;;
39082;SDS011;24834;44.444;26.098;2023-05-29T20:54:07;25.00;;;24.33;;
39082;SDS011;24834;44.444;26.098;2023-05-29T21:00:09;26.33;;;25.00;;
39082;SDS011;24834;44.444;26.098;2023-05-29T21:06:14;25.00;;;24.00;;
39082;SDS011;24834;44.444;26.098;2023-05-29T21:12:16;24.33;;;24.33;;
39082;SDS011;24834;44.444;26.098;2023-05-29T21:18:19;29.33;;;25.33;;
39082;SDS011;24834;44.444;26.098;2023-05-29T21:24:21;26.67;;;25.00;;
39082;SDS011;24834;44.444;26.098;2023-05-29T21:30:26;23.00;;;21.00;;
39082;SDS011;24834;44.444;26.098;2023-05-29T21:36:28;24.00;;;20.67;;
39082;SDS011;24834;44.444;26.098;2023-05-29T21:42:30;20.67;;;20.67;;
39082;SDS011;24834;44.444;26.098;2023-05-29T21:48:33;21.00;;;19.00;;
39082;SDS011;24834;44.444;26.098;2023-05-29T21:54:36;23.50;;;22.50;;
39082;SDS011;24834;44.444;26.098;2023-05-29T22:00:38;22.33;;;21.67;;
39082;SDS011;24834;44.444;26.098;2023-05-29T22:06:41;23.33;;;17.67;;
39082;SDS011;24834;44.444;26.098;2023-05-29T22:12:44;13.00;;;13.00;;
39082;SDS011;24834;44.444;26.098;2023-05-29T22:18:47;23.67;;;23.00;;
39082;SDS011;24834;44.444;26.098;2023-05-29T22:25:05;17.67;;;17.67;;
39082;SDS011;24834;44.444;26.098;2023-05-29T22:31:09;15.67;;;15.67;;
39082;SDS011;24834;44.444;26.098;2023-05-29T22:37:11;19.00;;;18.33;;
39082;SDS011;24834;44.444;26.098;2023-05-29T22:43:14;17.00;;;16.00;;
39082;SDS011;24834;44.444;26.098;2023-05-29T22:49:17;22.00;;;19.00;;
39082;SDS011;24834;44.444;26.098;2023-05-29T22:55:20;17.67;;;17.33;;
39082;SDS011;24834;44.444;26.098;2023-05-29T23:01:22;21.00;;;19.33;;
39082;SDS011;24834;44.444;26.098;2023-05-29T23:07:27;22.00;;;18.00;;
39082;SDS011;24834;44.444;26.098;2023-05-29T23:13:30;16.00;;;15.67;;
39082;SDS011;24834;44.444;26.098;2023-05-29T23:19:32;20.00;;;17.67;;
39082;SDS011;24834;44.444;26.098;2023-05-29T23:25:36;21.00;;;21.00;;
39082;SDS011;24834;44.444;26.098;2023-05-29T23:31:38;19.67;;;18.33;;
39082;SDS011;24834;44.444;26.098;2023-05-29T23:37:41;20.00;;;19.33;;
39082;SDS011;24834;44.444;26.098;2023-05-29T23:43:43;18.33;;;17.00;;
39082;SDS011;24834;44.444;26.098;2023-05-29T23:49:45;15.67;;;15.67;;
39082;SDS011;24834;44.444;26.098;2023-05-29T23:55:48;20.00;;;20.00;;
